createdAt,value
2022-12-25T00:00:32.506Z,13.04
2022-12-25T00:03:22.962Z,13.08
2022-12-25T00:05:54.696Z,13.07
2022-12-25T00:08:24.990Z,13.11
2022-12-25T00:11:02.581Z,13.07
2022-12-25T00:13:34.362Z,13.08
2022-12-25T00:16:10.573Z,13.09
2022-12-25T00:18:42.317Z,12.57
2022-12-25T00:21:15.444Z,11.44
2022-12-25T00:23:47.426Z,10.94
2022-12-25T00:26:20.141Z,11.56
2022-12-25T00:28:54.716Z,11.53
2022-12-25T00:31:27.383Z,11.34
2022-12-25T00:33:59.116Z,11.38
2022-12-25T00:36:29.238Z,11.46
2022-12-25T00:39:00.885Z,11.69
2022-12-25T00:41:49.845Z,12.62
2022-12-25T00:44:21.526Z,13.55
2022-12-25T00:46:51.713Z,13.06
2022-12-25T00:49:24.936Z,11.73
2022-12-25T00:51:56.704Z,10.69
2022-12-25T00:54:28.411Z,10.48
2022-12-25T00:57:00.096Z,11.93
2022-12-25T00:59:35.056Z,12.64
2022-12-25T01:02:25.400Z,12.37
2022-12-25T01:04:57.985Z,10.97
2022-12-25T01:07:29.848Z,10.36
2022-12-25T01:10:18.981Z,11.49
2022-12-25T01:12:52.282Z,12.25
2022-12-25T01:15:24.039Z,12.56
2022-12-25T01:17:55.762Z,12.27
2022-12-25T01:20:27.430Z,11.00
2022-12-25T01:22:57.541Z,9.98
2022-12-25T01:25:29.219Z,9.98
2022-12-25T01:27:59.395Z,11.06
2022-12-25T01:30:31.694Z,11.82
2022-12-25T01:33:03.486Z,12.28
2022-12-25T01:35:33.622Z,12.42
2022-12-25T01:38:05.347Z,12.16
2022-12-25T01:40:36.066Z,12.40
2022-12-25T01:43:18.561Z,12.67
2022-12-25T01:45:52.574Z,12.87
2022-12-25T01:48:28.595Z,12.77
2022-12-25T01:51:03.317Z,11.76
2022-12-25T01:53:35.396Z,10.40
2022-12-25T01:56:10.466Z,9.91
2022-12-25T01:58:42.954Z,10.76
2022-12-25T02:01:14.703Z,11.36
2022-12-25T02:03:46.926Z,11.93
2022-12-25T02:06:18.553Z,12.21
2022-12-25T02:08:48.781Z,11.98
2022-12-25T02:11:34.417Z,11.72
2022-12-25T02:14:06.114Z,11.56
2022-12-25T02:16:57.414Z,11.41
2022-12-25T02:19:53.491Z,11.33
2022-12-25T02:22:37.180Z,11.28
2022-12-25T02:25:22.569Z,11.29
2022-12-25T02:28:08.922Z,11.33
2022-12-25T02:30:45.551Z,11.41
2022-12-25T02:33:40.074Z,11.48
2022-12-25T02:36:19.638Z,11.54
2022-12-25T02:39:14.248Z,11.57
2022-12-25T02:41:49.944Z,11.60
2022-12-25T02:44:41.860Z,11.62
2022-12-25T02:47:45.876Z,11.49
2022-12-25T02:50:36.889Z,11.32
2022-12-25T02:53:29.903Z,11.20
2022-12-25T02:56:19.677Z,11.23
2022-12-25T02:59:09.727Z,11.35
2022-12-25T03:02:00.936Z,11.63
2022-12-25T03:04:51.510Z,11.70
2022-12-25T03:07:26.710Z,11.82
2022-12-25T03:10:19.984Z,11.90
2022-12-25T03:12:54.595Z,11.95
2022-12-25T03:15:44.164Z,11.94
2022-12-25T03:18:19.128Z,11.85
2022-12-25T03:21:08.763Z,11.78
2022-12-25T03:24:01.125Z,11.78
2022-12-25T03:26:51.912Z,11.75
2022-12-25T03:29:41.715Z,11.68
2022-12-25T03:32:26.340Z,11.60
2022-12-25T03:35:25.362Z,11.57
2022-12-25T03:38:39.737Z,11.54
2022-12-25T03:41:50.754Z,11.49
2022-12-25T03:44:44.591Z,11.43
2022-12-25T03:47:38.828Z,11.44
2022-12-25T03:50:35.050Z,11.39
2022-12-25T03:53:29.225Z,11.35
2022-12-25T03:56:19.020Z,11.38
2022-12-25T03:59:17.803Z,11.39
2022-12-25T04:02:16.140Z,11.42
2022-12-25T04:05:05.367Z,11.48
2022-12-25T04:07:54.269Z,11.56
2022-12-25T04:10:44.200Z,11.65
2022-12-25T04:13:33.931Z,11.68
2022-12-25T04:16:23.752Z,11.63
2022-12-25T04:19:12.963Z,11.54
2022-12-25T04:22:01.982Z,11.43
2022-12-25T04:24:51.275Z,11.35
2022-12-25T04:27:41.128Z,11.25
2022-12-25T04:30:31.457Z,11.21
2022-12-25T04:33:20.578Z,11.15
2022-12-25T04:36:15.279Z,11.13
2022-12-25T04:38:46.935Z,11.13
2022-12-25T04:41:18.668Z,11.11
2022-12-25T04:43:48.776Z,11.11
2022-12-25T04:46:20.429Z,11.09
2022-12-25T04:48:50.639Z,11.13
2022-12-25T04:51:24.612Z,11.14
2022-12-25T04:53:56.989Z,11.19
2022-12-25T04:56:28.644Z,11.19
2022-12-25T04:58:58.796Z,11.12
2022-12-25T05:01:30.556Z,11.07
2022-12-25T05:04:02.281Z,11.12
2022-12-25T05:06:32.450Z,11.14
2022-12-25T05:09:04.230Z,11.14
2022-12-25T05:11:35.862Z,11.22
2022-12-25T05:14:06.051Z,11.27
2022-12-25T05:16:38.234Z,11.24
2022-12-25T05:19:09.920Z,11.27
2022-12-25T05:21:41.776Z,11.24
2022-12-25T05:24:11.925Z,11.20
2022-12-25T05:26:45.482Z,11.14
2022-12-25T05:29:17.910Z,11.14
2022-12-25T05:31:48.069Z,11.16
2022-12-25T05:34:19.695Z,11.15
2022-12-25T05:36:49.836Z,11.21
2022-12-25T05:39:21.695Z,11.23
2022-12-25T05:41:53.308Z,11.33
2022-12-25T05:44:23.642Z,11.34
2022-12-25T05:46:55.304Z,11.29
2022-12-25T05:49:27.092Z,11.30
2022-12-25T05:51:58.809Z,11.20
2022-12-25T05:54:28.933Z,11.17
2022-12-25T05:57:00.664Z,11.13
2022-12-25T05:59:33.679Z,11.12
2022-12-25T06:02:05.352Z,11.10
2022-12-25T06:04:35.488Z,11.05
2022-12-25T06:07:07.195Z,10.99
2022-12-25T06:09:37.269Z,10.98
2022-12-25T06:12:09.663Z,10.95
2022-12-25T06:14:41.324Z,10.96
2022-12-25T06:17:11.587Z,10.97
2022-12-25T06:19:44.492Z,10.96
2022-12-25T06:22:16.154Z,11.01
2022-12-25T06:24:47.917Z,11.03
2022-12-25T06:27:18.035Z,11.01
2022-12-25T06:29:49.659Z,10.95
2022-12-25T06:32:19.872Z,10.92
2022-12-25T06:34:51.643Z,10.83
2022-12-25T06:37:23.275Z,10.74
2022-12-25T06:39:53.419Z,10.70
2022-12-25T06:42:24.996Z,10.68
2022-12-25T06:44:55.135Z,10.74
2022-12-25T06:47:26.769Z,10.69
2022-12-25T06:49:56.930Z,10.69
2022-12-25T06:52:28.661Z,10.68
2022-12-25T06:55:00.533Z,10.65
2022-12-25T06:57:32.471Z,10.64
2022-12-25T07:00:04.810Z,10.57
2022-12-25T07:02:38.587Z,10.50
2022-12-25T07:05:11.218Z,10.46
2022-12-25T07:07:42.807Z,10.45
2022-12-25T07:10:14.790Z,10.47
2022-12-25T07:12:46.456Z,10.48
2022-12-25T07:15:16.559Z,10.51
2022-12-25T07:17:48.136Z,10.56
2022-12-25T07:20:18.257Z,10.67
2022-12-25T07:22:49.921Z,10.72
2022-12-25T07:25:20.065Z,10.79
2022-12-25T07:27:51.686Z,10.82
2022-12-25T07:30:21.833Z,10.90
2022-12-25T07:32:53.444Z,10.92
2022-12-25T07:35:23.550Z,10.99
2022-12-25T07:37:55.755Z,10.96
2022-12-25T07:40:27.393Z,10.82
2022-12-25T07:42:57.519Z,10.58
2022-12-25T07:45:29.291Z,10.55
2022-12-25T07:48:05.236Z,10.57
2022-12-25T07:50:38.001Z,10.65
2022-12-25T07:53:09.718Z,10.75
2022-12-25T07:55:41.405Z,10.83
2022-12-25T07:58:11.533Z,10.92
2022-12-25T08:00:43.148Z,10.96
2022-12-25T08:03:15.351Z,11.02
2022-12-25T08:05:47.663Z,11.12
2022-12-25T08:08:19.303Z,11.33
2022-12-25T08:10:49.439Z,11.54
2022-12-25T08:13:21.125Z,11.69
2022-12-25T08:15:51.281Z,11.88
2022-12-25T08:18:29.397Z,12.00
2022-12-25T08:21:05.689Z,12.16
2022-12-25T08:23:39.736Z,12.28
2022-12-25T08:26:14.848Z,12.34
2022-12-25T08:28:46.985Z,12.41
2022-12-25T08:31:20.280Z,12.44
2022-12-25T08:33:54.016Z,12.44
2022-12-25T08:36:26.182Z,12.43
2022-12-25T08:39:02.548Z,12.44
2022-12-25T08:41:36.426Z,12.46
2022-12-25T08:44:08.752Z,12.47
2022-12-25T08:46:40.738Z,12.50
2022-12-25T08:49:12.496Z,12.49
2022-12-25T08:51:42.634Z,12.44
2022-12-25T08:54:14.303Z,12.42
2022-12-25T08:56:44.412Z,12.47
2022-12-25T08:59:16.031Z,12.49
2022-12-25T09:01:46.256Z,12.56
2022-12-25T09:04:18.030Z,12.61
2022-12-25T09:06:50.292Z,12.69
2022-12-25T09:09:22.050Z,12.78
2022-12-25T09:11:52.149Z,12.87
2022-12-25T09:14:23.824Z,12.89
2022-12-25T09:16:53.932Z,12.97
2022-12-25T09:19:25.589Z,13.00
2022-12-25T09:21:55.742Z,13.02
2022-12-25T09:24:27.424Z,12.95
2022-12-25T09:26:59.016Z,12.95
2022-12-25T09:29:29.140Z,12.96
2022-12-25T09:32:00.810Z,12.94
2022-12-25T09:34:32.621Z,12.98
2022-12-25T09:37:04.420Z,12.99
2022-12-25T09:39:39.417Z,13.01
2022-12-25T09:42:20.173Z,13.03
2022-12-25T09:44:56.461Z,13.10
2022-12-25T09:47:30.134Z,13.13
2022-12-25T09:50:12.293Z,13.07
2022-12-25T09:52:49.654Z,12.98
2022-12-25T09:55:24.172Z,12.96
2022-12-25T09:57:58.355Z,12.92
2022-12-25T10:00:41.761Z,12.82
2022-12-25T10:03:35.883Z,12.72
2022-12-25T10:06:19.002Z,12.75
2022-12-25T10:09:18.429Z,12.77
2022-12-25T10:11:59.954Z,12.80
2022-12-25T10:14:36.049Z,12.84
2022-12-25T10:17:25.323Z,12.86
2022-12-25T10:20:05.667Z,12.90
2022-12-25T10:22:42.579Z,12.94
2022-12-25T10:25:19.460Z,12.96
2022-12-25T10:27:55.729Z,12.96
2022-12-25T10:30:29.845Z,12.93
2022-12-25T10:33:01.560Z,12.92
2022-12-25T10:35:33.462Z,12.92
2022-12-25T10:38:12.172Z,13.00
2022-12-25T10:41:01.228Z,13.11
2022-12-25T10:43:38.924Z,13.23
2022-12-25T10:46:15.408Z,13.29
2022-12-25T10:48:51.335Z,13.28
2022-12-25T10:51:35.818Z,13.31
2022-12-25T10:54:23.427Z,13.32
2022-12-25T10:57:00.766Z,13.20
2022-12-25T10:59:36.902Z,13.20
2022-12-25T11:02:19.684Z,13.13
2022-12-25T11:04:52.627Z,13.06
2022-12-25T11:07:27.130Z,13.02
2022-12-25T11:10:05.337Z,12.97
2022-12-25T11:12:43.377Z,13.00
2022-12-25T11:15:34.849Z,12.98
2022-12-25T11:18:18.609Z,12.99
2022-12-25T11:20:55.488Z,13.00
2022-12-25T11:23:29.935Z,13.02
2022-12-25T11:26:03.640Z,13.05
2022-12-25T11:28:37.926Z,13.11
2022-12-25T11:31:13.464Z,13.15
2022-12-25T11:33:51.684Z,13.17
2022-12-25T11:36:41.151Z,13.18
2022-12-25T11:39:21.258Z,13.10
2022-12-25T11:41:56.207Z,13.11
2022-12-25T11:44:47.029Z,13.12
2022-12-25T11:47:26.689Z,13.11
2022-12-25T11:50:05.200Z,13.08
2022-12-25T11:52:39.831Z,13.03
2022-12-25T11:55:24.195Z,13.04
2022-12-25T11:58:02.411Z,12.98
2022-12-25T12:00:37.726Z,12.86
2022-12-25T12:03:19.510Z,12.86
2022-12-25T12:05:59.063Z,12.90
2022-12-25T12:08:31.491Z,12.89
2022-12-25T12:11:19.022Z,12.86
2022-12-25T12:14:16.050Z,12.91
2022-12-25T12:16:48.294Z,12.88
2022-12-25T12:19:28.704Z,12.80
2022-12-25T12:22:02.835Z,12.80
2022-12-25T12:24:40.006Z,12.83
2022-12-25T12:27:28.964Z,12.88
2022-12-25T12:30:02.062Z,12.90
2022-12-25T12:32:41.885Z,12.91
2022-12-25T12:35:19.170Z,12.68
2022-12-25T12:37:54.581Z,12.46
2022-12-25T12:40:34.758Z,12.36
2022-12-25T12:43:09.271Z,12.50
2022-12-25T12:45:40.979Z,12.60
2022-12-25T12:48:25.993Z,12.70
2022-12-25T12:51:07.083Z,12.68
2022-12-25T12:53:40.130Z,12.75
2022-12-25T12:56:18.042Z,12.77
2022-12-25T12:58:51.295Z,12.81
2022-12-25T13:01:39.582Z,12.82
2022-12-25T13:04:40.527Z,12.88
2022-12-25T13:07:32.183Z,12.99
2022-12-25T13:10:14.680Z,13.07
2022-12-25T13:12:47.015Z,13.06
2022-12-25T13:15:19.760Z,13.02
2022-12-25T13:17:51.689Z,12.99
2022-12-25T13:20:30.763Z,13.01
2022-12-25T13:23:02.496Z,12.99
2022-12-25T13:25:34.131Z,12.94
2022-12-25T13:28:04.880Z,12.90
2022-12-25T13:30:36.665Z,12.85
2022-12-25T13:33:17.373Z,12.87
2022-12-25T13:35:49.553Z,12.88
2022-12-25T13:38:23.254Z,12.86
2022-12-25T13:41:14.841Z,12.83
2022-12-25T13:43:49.829Z,12.76
2022-12-25T13:46:27.944Z,12.69
2022-12-25T13:49:02.368Z,12.62
2022-12-25T13:51:35.024Z,12.56
2022-12-25T13:54:07.982Z,12.55
2022-12-25T13:56:46.344Z,12.51
2022-12-25T13:59:20.447Z,12.48
2022-12-25T14:01:54.257Z,12.45
2022-12-25T14:04:26.989Z,12.38
2022-12-25T14:07:09.511Z,12.36
2022-12-25T14:09:41.713Z,12.33
2022-12-25T14:12:19.114Z,12.31
2022-12-25T14:14:53.362Z,12.26
2022-12-25T14:17:25.546Z,12.24
2022-12-25T14:20:07.824Z,12.24
2022-12-25T14:22:41.363Z,12.25
2022-12-25T14:25:18.193Z,12.24
2022-12-25T14:27:53.603Z,12.19
2022-12-25T14:30:28.609Z,12.10
2022-12-25T14:33:02.594Z,12.04
2022-12-25T14:35:34.432Z,12.02
2022-12-25T14:38:16.787Z,12.03
2022-12-25T14:40:48.441Z,12.03
2022-12-25T14:43:24.603Z,11.98
2022-12-25T14:45:59.733Z,11.85
2022-12-25T14:48:40.775Z,11.79
2022-12-25T14:51:21.818Z,11.73
2022-12-25T14:53:59.936Z,11.62
2022-12-25T14:56:48.970Z,11.54
2022-12-25T14:59:29.885Z,11.52
2022-12-25T15:02:22.530Z,11.52
2022-12-25T15:04:58.561Z,11.53
2022-12-25T15:07:45.821Z,11.54
2022-12-25T15:13:21.398Z,11.49
2022-12-25T15:16:06.809Z,11.45
2022-12-25T15:18:41.384Z,11.39
2022-12-25T15:21:27.583Z,11.32
2022-12-25T15:24:00.728Z,11.24
2022-12-25T15:26:37.551Z,11.23
2022-12-25T15:29:27.589Z,11.22
2022-12-25T15:32:20.591Z,11.15
2022-12-25T15:34:53.860Z,11.05
2022-12-25T15:37:25.587Z,11.02
2022-12-25T15:39:57.680Z,10.91
2022-12-25T15:42:56.436Z,10.73
2022-12-25T15:45:40.103Z,10.53
2022-12-25T15:48:26.282Z,10.46
2022-12-25T15:51:20.203Z,10.39
2022-12-25T15:54:01.721Z,10.34
2022-12-25T15:56:48.942Z,10.28
2022-12-25T15:59:34.404Z,10.26
2022-12-25T16:02:19.795Z,10.27
2022-12-25T16:05:29.955Z,10.27
2022-12-25T16:08:18.582Z,10.27
2022-12-25T16:11:04.668Z,10.26
2022-12-25T16:13:41.826Z,10.23
2022-12-25T16:16:22.664Z,10.21
2022-12-25T16:18:56.874Z,10.20
2022-12-25T16:21:27.291Z,10.21
2022-12-25T16:23:59.587Z,10.21
2022-12-25T16:26:33.229Z,10.27
2022-12-25T16:29:07.397Z,10.30
2022-12-25T16:31:40.488Z,10.21
2022-12-25T16:34:12.638Z,10.05
2022-12-25T16:36:44.686Z,9.95
2022-12-25T16:39:16.495Z,9.91
2022-12-25T16:41:46.625Z,9.92
2022-12-25T16:44:18.368Z,9.90
2022-12-25T16:46:48.602Z,9.92
2022-12-25T16:49:20.298Z,9.90
2022-12-25T16:51:50.471Z,9.96
2022-12-25T16:54:22.150Z,9.95
2022-12-25T16:56:52.552Z,10.01
2022-12-25T16:59:24.208Z,10.00
2022-12-25T17:01:57.369Z,10.00
2022-12-25T17:04:29.641Z,9.99
2022-12-25T17:07:01.357Z,9.97
2022-12-25T17:09:31.636Z,9.95
2022-12-25T17:12:03.319Z,9.87
2022-12-25T17:14:34.133Z,9.84
2022-12-25T17:17:05.944Z,9.81
2022-12-25T17:19:40.151Z,9.82
2022-12-25T17:22:11.926Z,9.66
2022-12-25T17:24:43.729Z,9.42
2022-12-25T17:27:15.448Z,9.35
2022-12-25T17:29:48.543Z,9.34
2022-12-25T17:32:20.269Z,9.39
2022-12-25T17:34:50.424Z,9.46
2022-12-25T17:37:22.062Z,9.48
2022-12-25T17:39:53.883Z,9.56
2022-12-25T17:42:24.046Z,9.63
2022-12-25T17:44:57.360Z,9.59
2022-12-25T17:47:30.273Z,9.57
2022-12-25T17:50:01.996Z,9.56
2022-12-25T17:52:34.536Z,9.58
2022-12-25T17:55:08.530Z,9.61
2022-12-25T17:57:41.363Z,9.60
2022-12-25T18:00:16.435Z,9.58
2022-12-25T18:02:48.237Z,9.57
2022-12-25T18:05:20.228Z,9.57
2022-12-25T18:07:51.877Z,9.56
2022-12-25T18:10:22.054Z,9.57
2022-12-25T18:12:53.691Z,9.53
2022-12-25T18:15:23.835Z,9.55
2022-12-25T18:17:55.738Z,9.52
2022-12-25T18:20:31.804Z,9.51
2022-12-25T18:23:06.210Z,9.40
2022-12-25T18:25:40.432Z,9.22
2022-12-25T18:28:13.158Z,9.10
2022-12-25T18:30:46.404Z,9.09
2022-12-25T18:33:18.102Z,9.16
2022-12-25T18:35:50.809Z,9.18
2022-12-25T18:38:22.498Z,9.16
2022-12-25T18:40:53.084Z,9.03
2022-12-25T18:43:53.737Z,8.85
2022-12-25T18:46:15.605Z,8.86
2022-12-25T18:48:47.626Z,8.88
2022-12-25T18:51:19.451Z,8.98
2022-12-25T18:53:51.291Z,9.10
2022-12-25T18:56:24.556Z,9.24
2022-12-25T18:58:54.728Z,9.42
2022-12-25T19:01:26.948Z,9.54
2022-12-25T19:04:04.375Z,9.65
2022-12-25T19:06:37.068Z,9.62
2022-12-25T19:09:09.732Z,9.57
2022-12-25T19:11:46.332Z,9.58
2022-12-25T19:14:18.699Z,9.61
2022-12-25T19:16:49.051Z,9.62
2022-12-25T19:19:21.252Z,9.58
2022-12-25T19:21:55.791Z,9.55
2022-12-25T19:24:27.867Z,9.51
2022-12-25T19:26:59.654Z,9.50
2022-12-25T19:29:31.548Z,9.49
2022-12-25T19:32:03.370Z,9.47
2022-12-25T19:34:37.331Z,9.46
2022-12-25T19:37:09.269Z,9.44
2022-12-25T19:39:46.919Z,9.45
2022-12-25T19:42:19.415Z,9.40
2022-12-25T19:44:51.487Z,9.31
2022-12-25T19:47:28.741Z,9.24
2022-12-25T19:50:03.336Z,9.26
2022-12-25T19:52:36.278Z,9.31
2022-12-25T19:55:11.036Z,9.33
2022-12-25T19:57:44.246Z,9.30
2022-12-25T20:00:19.126Z,9.25
2022-12-25T20:02:53.147Z,9.23
2022-12-25T20:05:25.714Z,9.23
2022-12-25T20:07:59.114Z,9.20
2022-12-25T20:10:33.077Z,9.18
2022-12-25T20:13:06.348Z,9.19
2022-12-25T20:15:40.640Z,9.12
2022-12-25T20:18:13.593Z,9.15
2022-12-25T20:20:49.277Z,9.07
2022-12-25T20:23:24.437Z,9.00
2022-12-25T20:25:59.695Z,8.97
2022-12-25T20:28:34.559Z,8.92
2022-12-25T20:31:10.435Z,8.93
2022-12-25T20:33:42.748Z,8.97
2022-12-25T20:36:15.074Z,8.97
2022-12-25T20:38:46.807Z,8.93
2022-12-25T20:41:26.872Z,8.95
2022-12-25T20:44:01.817Z,9.00
2022-12-25T20:46:34.043Z,9.06
2022-12-25T20:49:06.518Z,9.11
2022-12-25T20:51:40.734Z,9.14
2022-12-25T20:54:14.862Z,9.15
2022-12-25T20:56:46.668Z,9.15
2022-12-25T20:59:18.468Z,9.11
2022-12-25T21:01:50.708Z,9.11
2022-12-25T21:04:22.502Z,9.11
2022-12-25T21:06:53.749Z,9.13
2022-12-25T21:09:25.790Z,9.11
2022-12-25T21:11:57.541Z,9.16
2022-12-25T21:14:30.358Z,10.09
2022-12-25T21:17:02.078Z,11.16
2022-12-25T21:19:34.118Z,11.74
2022-12-25T21:22:05.780Z,12.24
2022-12-25T21:24:36.353Z,12.22
2022-12-25T21:27:08.139Z,10.85
2022-12-25T21:29:40.393Z,9.54
2022-12-25T21:32:29.508Z,8.80
2022-12-25T21:35:01.194Z,9.24
2022-12-25T21:37:33.669Z,9.37
2022-12-25T21:40:06.785Z,9.28
2022-12-25T21:42:40.712Z,9.33
2022-12-25T21:45:11.171Z,9.46
2022-12-25T21:48:02.447Z,9.62
2022-12-25T21:50:52.358Z,9.59
2022-12-25T21:53:25.161Z,9.42
2022-12-25T21:56:02.233Z,9.32
2022-12-25T21:58:34.023Z,9.21
2022-12-25T22:01:06.503Z,9.03
2022-12-25T22:03:38.395Z,8.79
2022-12-25T22:06:27.497Z,8.71
2022-12-25T22:08:59.279Z,8.66
2022-12-25T22:11:48.612Z,8.68
2022-12-25T22:14:51.145Z,8.67
2022-12-25T22:17:43.473Z,8.63
2022-12-25T22:20:17.532Z,8.62
2022-12-25T22:22:49.784Z,8.60
2022-12-25T22:25:22.005Z,8.59
2022-12-25T22:27:54.254Z,8.58
2022-12-25T22:30:27.709Z,8.64
2022-12-25T22:32:59.683Z,8.70
2022-12-25T22:35:31.374Z,8.77
2022-12-25T22:38:01.514Z,8.83
2022-12-25T22:40:33.432Z,8.84
2022-12-25T22:43:05.112Z,8.91
2022-12-25T22:45:35.234Z,8.95
2022-12-25T22:48:07.568Z,8.90
2022-12-25T22:50:39.278Z,8.96
2022-12-25T22:53:09.467Z,9.01
2022-12-25T22:55:45.895Z,9.01
2022-12-25T22:58:17.849Z,9.06
2022-12-25T23:00:49.812Z,9.11
2022-12-25T23:03:20.074Z,9.18
2022-12-25T23:05:57.097Z,9.20
2022-12-25T23:08:29.127Z,9.25
2022-12-25T23:11:06.370Z,9.26
2022-12-25T23:14:10.461Z,9.30
2022-12-25T23:16:42.157Z,9.32
2022-12-25T23:19:33.965Z,9.37
2022-12-25T23:22:22.938Z,9.43
2022-12-25T23:25:12.183Z,9.44
2022-12-25T23:27:44.328Z,9.45
2022-12-25T23:30:17.744Z,9.46
2022-12-25T23:32:49.625Z,9.49
2022-12-25T23:35:21.583Z,9.51
2022-12-25T23:37:55.296Z,9.50
2022-12-25T23:40:26.942Z,9.50
2022-12-25T23:42:57.056Z,9.48
2022-12-25T23:45:28.733Z,9.39
2022-12-25T23:47:58.905Z,9.37
2022-12-25T23:50:30.645Z,9.33
2022-12-25T23:53:02.305Z,9.36
2022-12-25T23:55:35.458Z,9.36
2022-12-25T23:58:07.398Z,9.33
